Time;durP1;ratioP1;P1;durP2;ratioP2;P2;SDS_P1;SDS_P2;PMS_P1;PMS_P2;Temp;Humidity;BMP_temperature;BMP_pressure;BME280_temperature;BME280_humidity;BME280_pressure;Samples;Min_cycle;Max_cycle;Signal;HPM_P1;HPM_P2
2021/01/29 00:00:13;;;;;;;;;;;;;;;6.30;46.43;99984.84;6083440;23;20264;-77
2021/01/29 00:02:40;;;;;;;;;;;;;;;6.29;46.54;99983.09;6077949;23;19929;-77
2021/01/29 00:05:08;;;;;;;;;;;;;;;6.26;46.65;99978.78;6079487;23;19945;-77
2021/01/29 00:07:36;;;;;;;;;;;;;;;6.26;46.51;99970.03;6083237;23;20237;-77
2021/01/29 00:10:03;;;;;;;;;;;;;;;6.22;46.52;99973.66;6083788;23;19936;-77
2021/01/29 00:12:30;;;;;;;;;;;;;;;6.19;46.39;99968.47;6084285;23;20233;-78
2021/01/29 00:14:58;;;;;;;;;;;;;;;6.17;46.26;99971.09;6084461;23;19925;-78
2021/01/29 00:17:25;;;;;;;;;;;;;;;6.12;46.50;99968.59;6079107;23;20812;-77
2021/01/29 00:19:52;;;;;;;;;;;;;;;6.12;46.37;99967.72;6079168;23;19956;-77
2021/01/29 00:22:20;;;;;;;;;;;;;;;6.08;46.47;99969.56;6081989;23;20020;-76
2021/01/29 00:24:46;;;;;;;;;;;;;;;6.06;46.36;99967.84;6084721;23;19925;-77
2021/01/29 00:27:14;;;;;;;;;;;;;;;6.05;46.10;99969.59;6083891;23;20007;-77
2021/01/29 00:29:41;;;;;;;;;;;;;;;6.05;46.36;99960.88;6084535;23;19937;-77
2021/01/29 00:32:09;;;;;;;;;;;;;;;6.05;46.19;99966.97;6077126;23;20371;-76
2021/01/29 00:34:36;;;;;;;;;;;;;;;6.04;46.22;99961.75;6078737;23;19929;-76
2021/01/29 00:37:03;;;;;;;;;;;;;;;6.06;46.15;99965.22;6083395;23;19926;-77
2021/01/29 00:39:30;;;;;;;;;;;;;;;6.07;46.05;99957.31;6083139;23;19949;-77
2021/01/29 00:41:56;;;;;;;;;;;;;;;6.09;46.02;99960.78;6083747;23;19949;-78
2021/01/29 00:44:23;;;;;;;;;;;;;;;6.11;46.26;99955.50;6082662;23;19933;-78
2021/01/29 00:46:50;;;;;;;;;;;;;;;6.14;46.12;99955.41;6077020;23;19969;-78
2021/01/29 00:49:18;;;;;;;;;;;;;;;6.17;45.98;99954.50;6080568;23;20344;-76
2021/01/29 00:51:45;;;;;;;;;;;;;;;6.21;45.98;99961.41;6081704;23;20233;-77
2021/01/29 00:54:12;;;;;;;;;;;;;;;6.23;45.79;99963.09;6083233;23;19994;-77
2021/01/29 00:56:39;;;;;;;;;;;;;;;6.23;45.87;99957.00;6080864;23;20318;-77
2021/01/29 00:59:12;;;;;;;;;;;;;;;6.29;45.67;99959.47;6079167;23;19936;-78
2021/01/29 01:02:11;;;;;;;;;;;;;;;6.30;46.00;99959.44;6088441;23;19933;-78
2021/01/29 01:04:39;;;;;;;;;;;;;;;6.35;45.74;99966.38;6084318;23;19956;-77
2021/01/29 01:07:06;;;;;;;;;;;;;;;6.39;45.59;99960.13;6081627;23;19928;-78
2021/01/29 01:09:46;;;;;;;;;;;;;;;6.43;45.40;99964.41;6083927;23;20368;-77
2021/01/29 01:12:23;;;;;;;;;;;;;;;6.45;45.21;99960.84;6081665;23;20055;-78
2021/01/29 01:15:10;;;;;;;;;;;;;;;6.52;45.19;99968.59;6077130;23;19925;-78
2021/01/29 01:17:44;;;;;;;;;;;;;;;6.55;45.10;99968.53;6077588;23;19925;-77
2021/01/29 01:20:30;;;;;;;;;;;;;;;6.57;45.06;99958.84;6080858;23;19929;-77
2021/01/29 01:22:58;;;;;;;;;;;;;;;6.60;44.96;99966.66;6082419;23;19925;-77
2021/01/29 01:25:44;;;;;;;;;;;;;;;6.61;45.11;99961.34;6080625;23;19932;-77
2021/01/29 01:28:22;;;;;;;;;;;;;;;6.60;44.90;99964.88;6076712;23;20373;-77
2021/01/29 01:31:00;;;;;;;;;;;;;;;6.61;44.80;99968.38;6075055;23;20359;-78
2021/01/29 01:33:29;;;;;;;;;;;;;;;6.61;45.11;99963.97;6080853;23;20000;-77
2021/01/29 01:36:13;;;;;;;;;;;;;;;6.59;45.10;99963.19;6082146;23;19922;-78
2021/01/29 01:38:47;;;;;;;;;;;;;;;6.60;44.97;99959.63;6080231;23;19928;-77
2021/01/29 01:41:15;;;;;;;;;;;;;;;6.58;44.95;99960.56;6080927;23;19940;-77
2021/01/29 01:43:49;;;;;;;;;;;;;;;6.55;44.78;99961.50;6078210;23;19933;-78
2021/01/29 01:46:40;;;;;;;;;;;;;;;6.52;45.16;99951.06;6078343;23;19926;-77
2021/01/29 01:49:37;;;;;;;;;;;;;;;6.53;45.07;99946.69;6083659;23;19925;-78
2021/01/29 01:52:14;;;;;;;;;;;;;;;6.49;45.07;99938.00;6081091;23;19932;-77
2021/01/29 01:55:06;;;;;;;;;;;;;;;6.46;45.10;99930.19;6082785;23;19929;-77
2021/01/29 01:57:41;;;;;;;;;;;;;;;6.42;45.21;99933.78;6076088;23;19925;-77
2021/01/29 02:00:16;;;;;;;;;;;;;;;6.44;45.20;99935.47;6076336;23;19921;-77
2021/01/29 02:03:07;;;;;;;;;;;;;;;6.39;45.36;99933.88;6083971;23;19948;-77
2021/01/29 02:06:03;;;;;;;;;;;;;;;6.37;45.06;99933.91;6006637;23;19934;-76
2021/01/29 02:08:42;;;;;;;;;;;;;;;6.36;45.22;99928.69;6082353;23;19929;-77
2021/01/29 02:11:16;;;;;;;;;;;;;;;6.31;45.15;99931.41;6079446;23;20586;-77
2021/01/29 02:14:03;;;;;;;;;;;;;;;6.29;45.13;99931.44;6062026;23;20500;-76
2021/01/29 02:16:54;;;;;;;;;;;;;;;6.28;45.17;99931.50;6081133;23;19928;-76
2021/01/29 02:19:56;;;;;;;;;;;;;;;6.24;45.05;99935.94;6083640;23;20951;-76
2021/01/29 02:22:44;;;;;;;;;;;;;;;6.22;45.14;99934.25;6082674;23;19971;-76
2021/01/29 02:25:51;;;;;;;;;;;;;;;6.19;45.26;99927.28;6036591;23;19925;-77
2021/01/29 02:28:33;;;;;;;;;;;;;;;6.17;45.17;99936.97;6076990;23;20353;-77
2021/01/29 02:31:39;;;;;;;;;;;;;;;6.19;45.17;99936.94;6082537;23;19953;-77
2021/01/29 02:34:27;;;;;;;;;;;;;;;6.20;45.08;99936.91;6082399;23;20367;-77
2021/01/29 02:37:29;;;;;;;;;;;;;;;6.23;45.10;99935.97;6081750;23;19996;-77
2021/01/29 02:40:18;;;;;;;;;;;;;;;6.25;44.80;99931.53;6100608;23;19932;-77
2021/01/29 02:43:02;;;;;;;;;;;;;;;6.25;45.04;99928.91;6075226;23;19979;-77
2021/01/29 02:45:43;;;;;;;;;;;;;;;6.28;44.68;99929.72;6082273;23;20386;-77
2021/01/29 02:48:53;;;;;;;;;;;;;;;6.32;44.82;99918.22;6102102;23;19925;-77
2021/01/29 02:51:50;;;;;;;;;;;;;;;6.36;44.77;99920.81;6084958;23;19926;-78
2021/01/29 02:54:39;;;;;;;;;;;;;;;6.40;44.72;99920.69;6078543;23;19931;-78
2021/01/29 02:57:43;;;;;;;;;;;;;;;6.42;44.54;99913.66;6076804;23;19925;-77
2021/01/29 03:00:19;;;;;;;;;;;;;;;6.46;44.62;99910.03;6082333;23;19925;-77
2021/01/29 03:03:04;;;;;;;;;;;;;;;6.48;44.53;99916.09;6081901;23;19921;-77
2021/01/29 03:05:42;;;;;;;;;;;;;;;6.58;44.43;99903.63;6084066;23;20008;-77
2021/01/29 03:08:13;;;;;;;;;;;;;;;6.59;44.36;99893.97;6080025;23;20295;-77
2021/01/29 03:11:02;;;;;;;;;;;;;;;6.62;44.36;99889.50;6077349;23;19935;-78
2021/01/29 03:13:53;;;;;;;;;;;;;;;6.70;44.40;99888.44;6083714;23;20010;-77
2021/01/29 03:16:41;;;;;;;;;;;;;;;6.77;44.16;99887.38;6082921;23;19940;-77
2021/01/29 03:19:29;;;;;;;;;;;;;;;6.81;44.13;99882.00;6085487;23;20293;-77
2021/01/29 03:22:29;;;;;;;;;;;;;;;6.86;43.82;99873.16;6159979;23;19940;-78
2021/01/29 03:25:17;;;;;;;;;;;;;;;6.83;43.93;99868.84;6078214;23;20046;-77
2021/01/29 03:28:05;;;;;;;;;;;;;;;6.85;44.02;99871.44;6084151;23;20329;-78
2021/01/29 03:30:54;;;;;;;;;;;;;;;6.85;44.20;99869.66;6083117;23;20352;-77
2021/01/29 03:33:40;;;;;;;;;;;;;;;6.87;44.09;99861.72;6084258;23;19987;-77
2021/01/29 03:36:29;;;;;;;;;;;;;;;6.90;44.03;99859.03;6082757;23;20015;-78
2021/01/29 03:39:23;;;;;;;;;;;;;;;6.89;44.21;99854.66;6103968;23;19929;-77
2021/01/29 03:42:16;;;;;;;;;;;;;;;6.85;44.10;99848.63;6082415;23;20228;-76
2021/01/29 03:45:07;;;;;;;;;;;;;;;6.84;44.22;99852.13;6084478;23;19933;-77
2021/01/29 03:47:57;;;;;;;;;;;;;;;6.86;44.04;99849.50;6083686;23;20089;-77
2021/01/29 03:50:46;;;;;;;;;;;;;;;6.84;44.03;99843.41;6083005;23;19936;-77
2021/01/29 03:53:40;;;;;;;;;;;;;;;6.81;44.33;99846.97;6077610;23;20547;-77
2021/01/29 03:56:36;;;;;;;;;;;;;;;6.78;44.12;99844.44;6083480;23;19936;-77
2021/01/29 03:59:24;;;;;;;;;;;;;;;6.76;44.47;99852.38;6083345;23;19928;-77
2021/01/29 04:02:20;;;;;;;;;;;;;;;6.72;44.11;99853.31;6048492;23;19926;-77
2021/01/29 04:05:10;;;;;;;;;;;;;;;6.71;44.21;99848.09;6082478;23;19932;-77
2021/01/29 04:07:57;;;;;;;;;;;;;;;6.71;43.98;99853.38;6076837;23;20040;-78
2021/01/29 04:10:48;;;;;;;;;;;;;;;6.64;44.29;99853.53;6082608;23;19967;-76
2021/01/29 04:13:44;;;;;;;;;;;;;;;6.64;44.25;99853.53;6082370;23;20007;-77
2021/01/29 04:16:19;;;;;;;;;;;;;;;6.61;44.25;99848.34;6078166;23;20352;-77
2021/01/29 04:18:47;;;;;;;;;;;;;;;6.58;44.34;99852.81;6082430;23;19922;-78
2021/01/29 04:21:19;;;;;;;;;;;;;;;6.55;44.01;99845.00;6076629;23;20039;-78
2021/01/29 04:23:51;;;;;;;;;;;;;;;6.52;44.24;99856.47;6077682;23;19925;-77
2021/01/29 04:26:19;;;;;;;;;;;;;;;6.52;44.36;99847.72;6083248;23;20019;-78
2021/01/29 04:28:49;;;;;;;;;;;;;;;6.50;44.40;99847.78;6085018;23;20027;-77
2021/01/29 04:31:18;;;;;;;;;;;;;;;6.50;44.16;99845.16;6085676;23;20032;-77
2021/01/29 04:33:47;;;;;;;;;;;;;;;6.51;44.22;99841.59;6085919;23;19961;-77
2021/01/29 04:36:15;;;;;;;;;;;;;;;6.53;44.07;99838.94;6079608;23;19995;-77
2021/01/29 04:38:45;;;;;;;;;;;;;;;6.55;44.41;99845.00;6081977;23;19926;-77
2021/01/29 04:41:21;;;;;;;;;;;;;;;6.56;44.16;99837.09;6083964;23;19929;-77
2021/01/29 04:43:55;;;;;;;;;;;;;;;6.58;44.13;99839.66;6084890;23;20016;-77
2021/01/29 04:46:33;;;;;;;;;;;;;;;6.60;43.94;99833.47;6084983;23;19988;-77
2021/01/29 04:49:03;;;;;;;;;;;;;;;6.63;43.98;99832.53;6076787;23;20245;-77
2021/01/29 04:51:42;;;;;;;;;;;;;;;6.66;43.96;99824.59;6079021;23;20446;-77
2021/01/29 04:54:22;;;;;;;;;;;;;;;6.69;43.81;99823.66;6082781;23;20615;-77
2021/01/29 04:57:10;;;;;;;;;;;;;;;6.71;43.78;99822.72;6084313;23;19932;-77
2021/01/29 04:59:43;;;;;;;;;;;;;;;6.71;43.82;99822.72;6084100;23;19929;-77
2021/01/29 05:02:39;;;;;;;;;;;;;;;6.76;43.47;99825.19;6082763;23;20003;-76
2021/01/29 05:05:45;;;;;;;;;;;;;;;6.76;44.02;99820.81;6077062;23;20427;-76
2021/01/29 05:08:58;;;;;;;;;;;;;;;6.76;43.89;99823.44;6081473;23;19929;-76
2021/01/29 05:12:17;;;;;;;;;;;;;;;6.78;43.79;99823.41;6081531;23;20340;-76
2021/01/29 05:14:55;;;;;;;;;;;;;;;6.78;43.78;99818.16;6084660;23;19971;-77
2021/01/29 05:17:43;;;;;;;;;;;;;;;6.76;43.91;99820.81;6079667;23;20015;-77
2021/01/29 05:20:20;;;;;;;;;;;;;;;6.75;43.94;99828.72;6082329;23;19925;-77
2021/01/29 05:22:52;;;;;;;;;;;;;;;6.69;44.00;99819.25;6081137;23;19922;-77
2021/01/29 05:25:37;;;;;;;;;;;;;;;6.66;43.70;99821.97;6083839;23;19937;-77
2021/01/29 05:28:23;;;;;;;;;;;;;;;6.65;43.83;99822.84;6083370;23;20816;-77
2021/01/29 05:31:04;;;;;;;;;;;;;;;6.63;43.86;99815.03;6082907;23;19921;-77
2021/01/29 05:33:36;;;;;;;;;;;;;;;6.59;43.93;99815.13;6075527;23;20088;-77
2021/01/29 05:36:18;;;;;;;;;;;;;;;6.57;44.01;99809.06;6080536;23;19983;-76
2021/01/29 05:38:55;;;;;;;;;;;;;;;6.53;43.92;99812.69;6082939;23;19925;-76
2021/01/29 05:41:43;;;;;;;;;;;;;;;6.50;44.17;99802.22;6079838;23;19921;-76
2021/01/29 05:44:35;;;;;;;;;;;;;;;6.47;44.01;99808.41;6087604;23;19956;-77
2021/01/29 05:47:11;;;;;;;;;;;;;;;6.45;44.05;99805.84;6077262;23;19921;-77
2021/01/29 05:49:47;;;;;;;;;;;;;;;6.42;43.97;99805.03;6078394;23;19925;-77
2021/01/29 05:52:32;;;;;;;;;;;;;;;6.41;44.25;99813.81;6082577;23;20307;-77
2021/01/29 05:55:07;;;;;;;;;;;;;;;6.35;44.11;99803.50;6091708;23;19921;-76
2021/01/29 05:57:54;;;;;;;;;;;;;;;6.31;43.99;99800.06;6081296;23;20012;-75
2021/01/29 06:00:40;;;;;;;;;;;;;;;6.26;44.09;99800.16;6080144;23;19944;-76
2021/01/29 06:03:16;;;;;;;;;;;;;;;6.23;44.29;99805.50;6075269;23;19949;-76
2021/01/29 06:06:05;;;;;;;;;;;;;;;6.21;44.48;99809.06;6082734;23;20267;-76
2021/01/29 06:08:50;;;;;;;;;;;;;;;6.18;44.42;99806.53;6106548;23;19922;-76
2021/01/29 06:11:26;;;;;;;;;;;;;;;6.14;44.27;99814.47;6081078;23;19921;-76
2021/01/29 06:14:14;;;;;;;;;;;;;;;6.11;44.42;99814.53;6082056;23;19936;-76
2021/01/29 06:17:02;;;;;;;;;;;;;;;6.08;44.35;99800.63;6077513;23;19955;-76
2021/01/29 06:19:41;;;;;;;;;;;;;;;6.07;44.20;99805.03;6078144;23;20313;-77
2021/01/29 06:22:27;;;;;;;;;;;;;;;6.04;44.54;99801.59;6081724;23;19921;-77
2021/01/29 06:25:01;;;;;;;;;;;;;;;6.03;44.42;99799.84;6083456;23;19929;-77
2021/01/29 06:27:52;;;;;;;;;;;;;;;6.03;44.53;99794.63;6072817;23;20016;-75
2021/01/29 06:30:35;;;;;;;;;;;;;;;6.04;44.49;99797.22;6104902;23;19921;-76
2021/01/29 06:33:19;;;;;;;;;;;;;;;6.04;44.21;99791.97;6074610;23;20237;-75
2021/01/29 06:36:03;;;;;;;;;;;;;;;6.07;44.30;99793.66;6083579;23;19928;-75
2021/01/29 06:38:35;;;;;;;;;;;;;;;6.09;44.41;99781.34;6080215;23;19956;-75
2021/01/29 06:41:28;;;;;;;;;;;;;;;6.10;44.28;99783.94;6080890;23;19933;-75
2021/01/29 06:44:01;;;;;;;;;;;;;;;6.15;44.15;99782.06;6077735;23;19925;-76
2021/01/29 06:46:43;;;;;;;;;;;;;;;6.17;43.81;99771.50;6077300;23;19959;-76
2021/01/29 06:49:23;;;;;;;;;;;;;;;6.23;43.88;99766.09;6082771;23;19925;-74
2021/01/29 06:52:08;;;;;;;;;;;;;;;6.29;43.82;99765.97;6084076;23;20375;-75
2021/01/29 06:55:02;;;;;;;;;;;;;;;6.35;43.70;99766.72;6083293;23;19922;-75
2021/01/29 06:57:36;;;;;;;;;;;;;;;6.42;43.66;99766.50;6098265;23;19960;-76
2021/01/29 07:00:09;;;;;;;;;;;;;;;6.46;43.41;99765.53;6070546;23;20364;-75
2021/01/29 07:03:03;;;;;;;;;;;;;;;6.52;43.36;99764.50;6082534;23;19983;-76
2021/01/29 07:05:38;;;;;;;;;;;;;;;6.57;43.25;99761.75;6085327;23;19996;-75
2021/01/29 07:08:23;;;;;;;;;;;;;;;6.62;43.33;99759.88;6083328;23;20020;-75
2021/01/29 07:11:05;;;;;;;;;;;;;;;6.66;43.33;99764.13;6081248;23;20024;-75
2021/01/29 07:13:38;;;;;;;;;;;;;;;6.76;43.19;99764.75;6078767;23;19925;-75
2021/01/29 07:16:11;;;;;;;;;;;;;;;6.82;43.22;99767.22;6077742;23;19996;-77
2021/01/29 07:18:51;;;;;;;;;;;;;;;6.88;43.26;99774.06;6083217;23;19932;-76
2021/01/29 07:21:36;;;;;;;;;;;;;;;6.95;43.17;99770.38;6079242;23;20074;-77
2021/01/29 07:24:12;;;;;;;;;;;;;;;7.00;42.99;99765.84;6080580;23;19929;-76
2021/01/29 07:26:45;;;;;;;;;;;;;;;7.03;43.23;99760.47;6079153;23;20360;-76
2021/01/29 07:29:25;;;;;;;;;;;;;;;7.08;42.94;99763.84;6078697;23;19932;-77
2021/01/29 07:31:57;;;;;;;;;;;;;;;7.10;42.65;99763.78;6082939;23;20425;-76
2021/01/29 07:34:28;;;;;;;;;;;;;;;7.13;42.93;99761.06;6082458;23;20509;-77
2021/01/29 07:37:26;;;;;;;;;;;;;;;7.14;42.75;99753.16;6083925;23;19926;-77
2021/01/29 07:40:02;;;;;;;;;;;;;;;7.20;42.50;99753.88;6084336;23;20001;-76
2021/01/29 07:42:49;;;;;;;;;;;;;;;7.22;42.58;99752.94;6077968;23;19929;-76
2021/01/29 07:45:30;;;;;;;;;;;;;;;7.24;42.33;99751.09;6104062;23;19925;-77
2021/01/29 07:48:08;;;;;;;;;;;;;;;7.25;42.52;99744.94;6083372;23;19991;-76
2021/01/29 07:50:38;;;;;;;;;;;;;;;7.27;42.75;99737.84;6082746;23;19925;-76
2021/01/29 07:53:07;;;;;;;;;;;;;;;7.29;42.46;99741.31;6083033;23;20033;-76
2021/01/29 07:55:51;;;;;;;;;;;;;;;7.31;42.41;99744.78;6079019;23;19983;-76
2021/01/29 07:58:22;;;;;;;;;;;;;;;7.32;42.65;99741.19;6078755;23;20008;-76
2021/01/29 08:01:13;;;;;;;;;;;;;;;7.34;42.54;99740.31;6081438;23;20006;-76
2021/01/29 08:03:58;;;;;;;;;;;;;;;7.35;42.78;99735.00;6097470;23;19928;-76
2021/01/29 08:06:28;;;;;;;;;;;;;;;7.37;42.77;99730.56;6084113;23;19926;-76
2021/01/29 08:08:58;;;;;;;;;;;;;;;7.41;42.63;99728.69;6082921;23;20725;-76
2021/01/29 08:11:26;;;;;;;;;;;;;;;7.43;42.35;99725.13;6080910;23;19948;-76
2021/01/29 08:14:02;;;;;;;;;;;;;;;7.47;42.35;99725.84;6082902;23;19925;-76
2021/01/29 08:16:47;;;;;;;;;;;;;;;7.51;42.33;99722.22;6083272;23;20334;-76
2021/01/29 08:19:18;;;;;;;;;;;;;;;7.57;41.94;99716.78;6096735;23;19992;-77
2021/01/29 08:22:03;;;;;;;;;;;;;;;7.63;42.00;99713.97;6077159;23;20289;-77
2021/01/29 08:24:46;;;;;;;;;;;;;;;7.67;42.19;99712.09;6083612;23;19921;-76
2021/01/29 08:27:31;;;;;;;;;;;;;;;7.75;41.93;99715.34;6095318;23;19921;-76
2021/01/29 08:30:33;;;;;;;;;;;;;;;7.81;41.70;99707.25;6083328;23;19960;-77
2021/01/29 08:33:31;;;;;;;;;;;;;;;7.86;41.71;99709.72;6073473;23;19926;-77
2021/01/29 08:36:22;;;;;;;;;;;;;;;7.90;41.67;99699.94;6076820;23;19968;-76
2021/01/29 08:38:55;;;;;;;;;;;;;;;8.02;41.15;99706.56;6083336;23;20261;-76
2021/01/29 08:41:26;;;;;;;;;;;;;;;8.12;41.55;99706.22;6083292;23;20419;-76
2021/01/29 08:43:58;;;;;;;;;;;;;;;8.26;41.36;99697.84;6083276;23;19933;-78
2021/01/29 08:46:49;;;;;;;;;;;;;;;8.36;41.37;99694.88;6083369;23;19960;-77
2021/01/29 08:49:31;;;;;;;;;;;;;;;8.52;41.26;99690.81;6078371;23;20001;-76
2021/01/29 08:52:03;;;;;;;;;;;;;;;8.77;40.58;99688.16;6078143;23;19968;-77
2021/01/29 08:54:38;;;;;;;;;;;;;;;8.87;39.86;99687.81;6083726;23;19949;-77
2021/01/29 08:57:12;;;;;;;;;;;;;;;8.95;40.67;99688.38;6083861;23;19925;-77
2021/01/29 08:59:40;;;;;;;;;;;;;;;9.03;40.15;99690.75;6083594;23;19925;-76
2021/01/29 09:02:12;;;;;;;;;;;;;;;9.12;40.13;99688.59;6081389;23;19922;-76
2021/01/29 09:04:42;;;;;;;;;;;;;;;9.22;40.12;99681.19;6076355;23;20236;-77
2021/01/29 09:07:16;;;;;;;;;;;;;;;9.46;39.50;99683.81;6079269;23;20012;-76
2021/01/29 09:09:44;;;;;;;;;;;;;;;9.69;39.04;99682.88;6084030;23;20118;-77
2021/01/29 09:12:14;;;;;;;;;;;;;;;10.13;38.46;99679.31;6083293;23;19925;-77
2021/01/29 09:14:43;;;;;;;;;;;;;;;10.68;37.22;99672.56;6083048;23;19932;-77
2021/01/29 09:17:12;;;;;;;;;;;;;;;11.16;36.75;99667.72;6079312;23;19925;-78
2021/01/29 09:19:42;;;;;;;;;;;;;;;13.44;32.50;99653.34;6076617;23;19925;-77
2021/01/29 09:22:15;;;;;;;;;;;;;;;15.54;28.95;99650.44;6082320;23;20134;-76
2021/01/29 09:24:46;;;;;;;;;;;;;;;16.29;27.84;99649.03;6083767;23;19921;-76
2021/01/29 09:27:23;;;;;;;;;;;;;;;16.88;26.86;99644.97;6083986;23;19978;-77
2021/01/29 09:29:51;;;;;;;;;;;;;;;17.56;25.81;99637.44;6086455;23;19936;-77
2021/01/29 09:32:21;;;;;;;;;;;;;;;17.03;26.85;99643.03;6079728;23;20244;-76
2021/01/29 09:34:52;;;;;;;;;;;;;;;17.77;25.97;99637.66;6077562;23;20341;-77
2021/01/29 09:37:21;;;;;;;;;;;;;;;17.49;26.39;99633.50;6082583;23;19952;-77
2021/01/29 09:40:02;;;;;;;;;;;;;;;17.60;26.47;99633.56;6082968;23;19925;-77
2021/01/29 09:42:47;;;;;;;;;;;;;;;18.31;25.46;99638.09;6081561;23;20026;-77
2021/01/29 09:45:15;;;;;;;;;;;;;;;18.49;25.25;99638.44;6082526;23;19930;-77
2021/01/29 09:47:44;;;;;;;;;;;;;;;18.22;25.68;99632.44;6075213;23;19925;-79
2021/01/29 09:50:23;;;;;;;;;;;;;;;18.14;26.09;99626.00;6079515;23;19960;-78
2021/01/29 09:52:58;;;;;;;;;;;;;;;16.87;28.07;99619.22;6082557;23;19978;-77
2021/01/29 09:55:28;;;;;;;;;;;;;;;16.41;29.19;99624.16;6084415;23;20330;-77
2021/01/29 09:57:59;;;;;;;;;;;;;;;15.59;30.50;99620.81;6084363;23;19964;-77
2021/01/29 10:00:28;;;;;;;;;;;;;;;14.37;32.61;99628.50;6079236;23;20394;-76
2021/01/29 10:02:59;;;;;;;;;;;;;;;13.93;33.65;99630.19;6077392;23;19925;-76
2021/01/29 10:05:30;;;;;;;;;;;;;;;13.67;34.55;99631.72;6082027;23;19931;-76
2021/01/29 10:08:07;;;;;;;;;;;;;;;13.72;34.29;99632.31;6081396;23;19957;-76
2021/01/29 10:10:41;;;;;;;;;;;;;;;14.32;33.00;99642.06;6083865;23;19930;-76
2021/01/29 10:13:17;;;;;;;;;;;;;;;15.10;31.89;99646.16;6083975;23;20202;-77
2021/01/29 10:15:46;;;;;;;;;;;;;;;14.59;32.57;99650.16;6078011;23;19939;-77
2021/01/29 10:18:17;;;;;;;;;;;;;;;14.09;34.03;99643.44;6076703;23;19968;-77
2021/01/29 10:20:45;;;;;;;;;;;;;;;13.58;34.74;99641.09;6083988;23;19930;-77
2021/01/29 10:23:26;;;;;;;;;;;;;;;13.20;35.90;99652.06;6083021;23;19925;-76
2021/01/29 10:26:10;;;;;;;;;;;;;;;12.97;36.25;99642.72;6083012;23;20012;-76
2021/01/29 10:28:53;;;;;;;;;;;;;;;12.78;36.68;99643.72;6082056;23;19932;-77
2021/01/29 10:31:22;;;;;;;;;;;;;;;12.84;36.75;99647.84;6075942;23;19925;-76
2021/01/29 10:33:58;;;;;;;;;;;;;;;13.07;36.19;99654.53;6083537;23;19925;-76
2021/01/29 10:36:28;;;;;;;;;;;;;;;13.09;36.04;99652.66;6082940;23;19956;-76
2021/01/29 10:38:59;;;;;;;;;;;;;;;12.87;36.37;99656.50;6082254;23;20288;-76
2021/01/29 10:41:33;;;;;;;;;;;;;;;12.74;37.12;99658.94;6083044;23;19940;-76
2021/01/29 10:44:02;;;;;;;;;;;;;;;12.56;37.30;99652.81;6079534;23;20005;-77
2021/01/29 10:46:48;;;;;;;;;;;;;;;12.43;37.48;99649.94;6077212;23;19925;-77
2021/01/29 10:49:19;;;;;;;;;;;;;;;12.40;37.63;99651.94;6083672;23;19932;-77
2021/01/29 10:51:55;;;;;;;;;;;;;;;12.44;37.64;99649.03;6083524;23;19922;-77
2021/01/29 10:54:23;;;;;;;;;;;;;;;12.64;37.34;99660.38;6083413;23;20145;-76
2021/01/29 10:56:58;;;;;;;;;;;;;;;12.45;37.84;99649.91;6084036;23;20606;-76
2021/01/29 10:59:28;;;;;;;;;;;;;;;12.36;37.93;99653.88;6077833;23;19929;-77
2021/01/29 11:01:59;;;;;;;;;;;;;;;12.57;37.47;99657.19;6080322;23;19925;-76
2021/01/29 11:04:28;;;;;;;;;;;;;;;12.35;38.02;99657.47;6083641;23;19921;-76
2021/01/29 11:07:00;;;;;;;;;;;;;;;12.24;38.22;99665.09;6083640;23;20407;-76
2021/01/29 11:09:29;;;;;;;;;;;;;;;12.20;38.48;99667.06;6083606;23;19922;-76
2021/01/29 11:12:02;;;;;;;;;;;;;;;12.20;38.53;99663.56;6079167;23;19975;-78
2021/01/29 11:14:32;;;;;;;;;;;;;;;12.31;38.30;99668.31;6078858;23;19921;-77
2021/01/29 11:17:05;;;;;;;;;;;;;;;12.46;37.82;99659.53;6083593;23;20840;-77
2021/01/29 11:19:34;;;;;;;;;;;;;;;12.67;37.66;99654.03;6083776;23;20035;-76
2021/01/29 11:22:13;;;;;;;;;;;;;;;12.88;37.37;99657.34;6084562;23;19921;-76
2021/01/29 11:24:46;;;;;;;;;;;;;;;12.99;37.19;99660.28;6085528;23;19961;-77
2021/01/29 11:27:19;;;;;;;;;;;;;;;13.28;36.53;99655.16;6078798;23;20028;-77
2021/01/29 11:29:53;;;;;;;;;;;;;;;13.66;35.64;99652.16;6079604;23;20331;-76
2021/01/29 11:32:22;;;;;;;;;;;;;;;14.04;34.91;99659.69;6084263;23;19944;-77
2021/01/29 11:34:53;;;;;;;;;;;;;;;13.71;35.96;99655.41;6085364;23;19968;-77
2021/01/29 11:37:25;;;;;;;;;;;;;;;13.28;36.88;99658.66;6084551;23;19932;-77
2021/01/29 11:39:57;;;;;;;;;;;;;;;12.94;37.85;99665.81;6085396;23;19933;-77
2021/01/29 11:42:28;;;;;;;;;;;;;;;12.93;37.64;99669.41;6078705;23;20359;-76
2021/01/29 11:45:00;;;;;;;;;;;;;;;13.07;37.30;99663.34;6080847;23;19925;-76
2021/01/29 11:47:31;;;;;;;;;;;;;;;13.04;37.61;99663.53;6083527;23;19933;-77
2021/01/29 11:50:03;;;;;;;;;;;;;;;12.75;38.18;99657.13;6085043;23;20241;-77
2021/01/29 11:52:33;;;;;;;;;;;;;;;12.57;38.78;99665.16;6084895;23;19976;-76
2021/01/29 11:55:13;;;;;;;;;;;;;;;12.51;38.63;99665.47;6081557;23;20016;-77
2021/01/29 11:57:53;;;;;;;;;;;;;;;12.57;38.85;99674.91;6079633;23;19979;-79
2021/01/29 12:00:23;;;;;;;;;;;;;;;12.52;38.70;99672.50;6082513;23;19925;-78
2021/01/29 12:02:57;;;;;;;;;;;;;;;12.40;39.05;99674.00;6086014;23;19929;-77
2021/01/29 12:05:28;;;;;;;;;;;;;;;12.23;39.54;99674.03;6084968;23;19977;-78
2021/01/29 12:08:03;;;;;;;;;;;;;;;12.14;39.67;99677.16;6082918;23;19928;-77
2021/01/29 12:10:35;;;;;;;;;;;;;;;12.21;39.58;99678.53;6080622;23;19979;-78
2021/01/29 12:13:07;;;;;;;;;;;;;;;12.14;39.60;99674.50;6078490;23;19984;-77
2021/01/29 12:15:37;;;;;;;;;;;;;;;12.02;39.93;99666.22;6084218;23;19932;-77
2021/01/29 12:18:06;;;;;;;;;;;;;;;12.07;39.94;99661.53;6082118;23;19972;-77
2021/01/29 12:20:35;;;;;;;;;;;;;;;11.90;40.27;99658.88;6084319;23;20000;-77
2021/01/29 12:23:07;;;;;;;;;;;;;;;11.75;40.65;99657.81;6082776;23;19944;-77
2021/01/29 12:26:07;;;;;;;;;;;;;;;11.62;40.71;99662.84;6077069;23;19986;-79
2021/01/29 12:28:40;;;;;;;;;;;;;;;11.52;40.89;99662.47;6141083;23;19979;-79
2021/01/29 12:31:17;;;;;;;;;;;;;;;11.49;40.94;99664.38;6142996;23;19920;-79
2021/01/29 12:33:51;;;;;;;;;;;;;;;11.45;41.09;99672.50;6107089;23;19925;-79
2021/01/29 12:36:20;;;;;;;;;;;;;;;11.37;41.18;99665.84;6083984;23;19929;-79
2021/01/29 12:38:51;;;;;;;;;;;;;;;11.26;41.27;99672.50;6078946;23;19925;-79
2021/01/29 12:41:21;;;;;;;;;;;;;;;11.21;41.51;99685.09;6077006;23;20003;-78
2021/01/29 12:44:09;;;;;;;;;;;;;;;11.22;41.30;99673.59;6082940;23;19974;-78
2021/01/29 12:46:40;;;;;;;;;;;;;;;11.20;41.31;99670.16;6084056;23;19921;-79
2021/01/29 12:49:10;;;;;;;;;;;;;;;11.16;41.44;99662.44;6084795;23;19926;-80
2021/01/29 12:51:38;;;;;;;;;;;;;;;11.07;41.57;99667.22;6083242;23;19964;-79
2021/01/29 12:54:11;;;;;;;;;;;;;;;11.00;41.65;99664.94;6079314;23;19925;-77
2021/01/29 12:56:51;;;;;;;;;;;;;;;10.97;41.55;99673.88;6078940;23;19921;-77
2021/01/29 12:59:28;;;;;;;;;;;;;;;10.97;41.37;99671.22;6082866;23;19925;-78
2021/01/29 13:02:00;;;;;;;;;;;;;;;10.88;41.57;99667.22;6083046;23;20405;-77
2021/01/29 13:04:34;;;;;;;;;;;;;;;10.79;41.59;99667.63;6083655;23;19921;-78
2021/01/29 13:07:06;;;;;;;;;;;;;;;10.77;41.67;99664.22;6079731;23;19925;-77
2021/01/29 13:09:39;;;;;;;;;;;;;;;10.68;41.97;99662.84;6077161;23;20119;-77
2021/01/29 13:12:11;;;;;;;;;;;;;;;10.61;41.76;99670.19;6082726;23;19936;-76
2021/01/29 13:14:43;;;;;;;;;;;;;;;10.56;41.91;99672.19;6083929;23;20004;-77
2021/01/29 13:17:17;;;;;;;;;;;;;;;10.50;42.17;99669.78;6082668;23;19925;-78
2021/01/29 13:19:47;;;;;;;;;;;;;;;10.44;42.50;99668.28;6083477;23;20276;-77
2021/01/29 13:22:28;;;;;;;;;;;;;;;10.36;42.25;99672.19;6077390;23;19925;-77
2021/01/29 13:25:12;;;;;;;;;;;;;;;10.29;42.72;99666.28;6079955;23;19926;-77
2021/01/29 13:27:40;;;;;;;;;;;;;;;10.27;42.58;99668.16;6082332;23;19960;-76
2021/01/29 13:30:25;;;;;;;;;;;;;;;10.19;42.33;99671.13;6082953;23;19921;-80
2021/01/29 13:32:53;;;;;;;;;;;;;;;10.18;42.66;99673.81;6082754;23;19929;-77
2021/01/29 13:35:23;;;;;;;;;;;;;;;10.14;42.58;99666.00;6078190;23;20004;-77
2021/01/29 13:37:52;;;;;;;;;;;;;;;10.14;42.82;99666.00;6074885;23;20603;-76
2021/01/29 13:40:25;;;;;;;;;;;;;;;10.11;42.58;99666.16;6077690;23;19922;-77
2021/01/29 13:42:56;;;;;;;;;;;;;;;10.10;42.87;99661.78;6080339;23;20004;-76
2021/01/29 13:45:25;;;;;;;;;;;;;;;10.04;43.16;99667.31;6080638;23;20008;-76
2021/01/29 13:48:01;;;;;;;;;;;;;;;10.00;42.83;99671.03;6080946;23;19933;-77